Atlantic Island — C4VM2 — position and weather

sailwx.info

Track history (hours):
 
Tides and Currents Weather Stations Pressure Air Temp Water Temp Dewpoint Dewpoint Depression Visibility Wind Speed Wind Dir Waves Ship Positions

Atlantic Island

Last reported at 2014-Jul-29 06:32 UTC. Time now 2014-Aug-02 06:42 UTC.
Position N 38°56' W 009°51'.

Length 95 m; draft 3.7 m.

Type: Cargo ship. MMSI: 210754000.

Date/timePositionNaut miles runAvg speedWind from/ knotsBaromVisibWave heightAir tempDewpointWater temp
2014-Jul-29 06:32N 38°56' W 009°51'34 6.9
2014-Jul-29 01:33N 38°27' W 009°27'1010.3
2014-Jul-29 00:32N 38°22' W 009°15'1010.4
2014-Jul-28 23:33N 38°24' W 009°02'10 9.7
2014-Jul-28 22:33N 38°31' W 008°53'1 0.5
2014-Jul-28 21:31N 38°31' W 008°53'0 0.0
2014-Jul-28 20:31N 38°31' W 008°53'0 0.0
2014-Jul-28 19:31N 38°31' W 008°53'0 0.0
2014-Jul-28 18:31N 38°31' W 008°53'0 0.0
2014-Jul-28 17:31N 38°31' W 008°53'0 0.0
2014-Jul-28 16:31N 38°31' W 008°53'0 0.0
2014-Jul-28 15:31N 38°31' W 008°53'0 0.0
2014-Jul-28 14:31N 38°31' W 008°53'0 0.0
2014-Jul-28 13:31N 38°31' W 008°53'0 0.0
2014-Jul-28 12:31N 38°31' W 008°53'0 0.0
2014-Jul-28 11:31N 38°31' W 008°53'0 0.0
2014-Jul-28 10:31N 38°31' W 008°53'0 0.0
2014-Jul-28 09:31N 38°31' W 008°53'0 0.0
2014-Jul-28 08:28N 38°31' W 008°53'0 0.0
2014-Jul-28 07:31N 38°31' W 008°53'0 0.0
2014-Jul-28 06:31N 38°31' W 008°53'0 0.0
2014-Jul-28 05:31N 38°31' W 008°53'0 0.0
2014-Jul-28 04:31N 38°31' W 008°53'0 0.0
2014-Jul-28 03:31N 38°31' W 008°53'0 0.0
2014-Jul-28 02:31N 38°31' W 008°53'0 0.0
2014-Jul-28 01:31N 38°31' W 008°53'0 0.0
2014-Jul-28 00:31N 38°31' W 008°53'0 0.0
2014-Jul-27 23:31N 38°31' W 008°53'0 0.0
2014-Jul-27 22:28N 38°31' W 008°53'0 0.0
2014-Jul-27 21:31N 38°31' W 008°53'0 0.0
2014-Jul-27 20:28N 38°31' W 008°53'0 0.0
2014-Jul-27 19:31N 38°31' W 008°53'0 0.0
2014-Jul-27 18:31N 38°31' W 008°53'0 0.0
2014-Jul-27 17:31N 38°31' W 008°53'0 0.0
2014-Jul-27 16:31N 38°31' W 008°53'0 0.0
2014-Jul-27 15:31N 38°31' W 008°53'0 0.0
2014-Jul-27 14:31N 38°31' W 008°53'0 0.0
2014-Jul-27 13:31N 38°31' W 008°53'0 0.0
2014-Jul-27 12:31N 38°31' W 008°53'0 0.0
2014-Jul-27 11:33N 38°31' W 008°53'0 0.0
2014-Jul-27 10:33N 38°31' W 008°53'3 2.9
2014-Jul-27 09:32N 38°29' W 008°56'9 8.8
2014-Jul-27 08:33N 38°24' W 009°04'10 9.5
2014-Jul-27 07:33N 38°22' W 009°16'1210.4
2014-Jul-27 06:25N 38°26' W 009°30'910.3
2014-Jul-27 05:30N 38°29' W 009°42'9 9.9
2014-Jul-27 04:33N 38°32' W 009°53'9 9.3
2014-Jul-27 03:33N 38°37' W 010°04'1010.1
2014-Jul-27 02:33N 38°47' W 010°05'1110.5
2014-Jul-27 01:33N 38°57' W 010°05'1010.3
2014-Jul-27 00:32N 39°08' W 010°05'1010.3
2014-Jul-26 23:33N 39°18' W 010°06'1110.6
2014-Jul-26 22:33N 39°28' W 010°06'1310.5
2014-Jul-26 21:19N 39°41' W 010°05'810.4
2014-Jul-26 20:33N 39°49' W 010°05'1010.2
2014-Jul-26 19:32N 39°60' W 010°04'  
2014-Jul-24 04:07N 43°32' W 003°39'4 7.5
2014-Jul-24 03:33N 43°35' W 003°34'8 7.9
2014-Jul-24 02:33N 43°34' W 003°23'8 7.7
2014-Jul-24 01:33N 43°34' W 003°13'8 7.8
2014-Jul-24 00:33N 43°34' W 003°02'8 7.8
2014-Jul-23 23:33N 43°33' W 002°51'8 7.8
2014-Jul-23 22:33N 43°33' W 002°40'8 8.0
2014-Jul-23 21:32N 43°30' W 002°30'10 8.4
2014-Jul-23 20:23N 43°26' W 002°17'138 3.4
2014-Jul-22 03:32N 43°43' W 005°26'10 9.7
2014-Jul-22 02:31N 43°43' W 005°40'10 9.2
2014-Jul-22 01:26N 43°44' W 005°54'9 9.6
2014-Jul-22 00:27N 43°45' W 006°07'337 6.6
2014-Jul-19 21:33N 38°40' W 009°19'8 8.4
2014-Jul-19 20:33N 38°41' W 009°08'3 3.0
2014-Jul-19 19:32N 38°40' W 009°04'0 0.0
2014-Jul-19 18:32N 38°40' W 009°04'0 0.0
2014-Jul-19 17:32N 38°40' W 009°04'0 0.0
2014-Jul-19 16:32N 38°40' W 009°04'0 0.0
2014-Jul-19 15:32N 38°40' W 009°04'0 0.0
2014-Jul-19 14:32N 38°40' W 009°04'0 0.0
2014-Jul-19 13:32N 38°40' W 009°04'0 0.0
2014-Jul-19 12:32N 38°40' W 009°04'0 0.0
2014-Jul-19 11:32N 38°40' W 009°04'0 0.0
2014-Jul-19 10:32N 38°40' W 009°04'0 0.0
2014-Jul-19 09:32N 38°40' W 009°04'0 0.0
2014-Jul-19 08:32N 38°40' W 009°04'0 0.0
2014-Jul-19 07:32N 38°40' W 009°04'  
Track history (hours):
 
Tides and Currents Weather Stations Pressure Air Temp Water Temp Dewpoint Dewpoint Depression Visibility Wind Speed Wind Dir Waves Ship Positions

Atlantic Island

Last reported at 2014-Jul-29 06:32 UTC. Time now 2014-Aug-02 06:42 UTC.
Position N 38°56' W 009°51'.

Length 95 m; draft 3.7 m.

Type: Cargo ship. MMSI: 210754000.

Date/timePositionNaut miles runAvg speedWind from/ knotsBaromVisibWave heightAir tempDewpointWater temp
2014-Jul-29 06:32N 38°56' W 009°51'34 6.9
2014-Jul-29 01:33N 38°27' W 009°27'1010.3
2014-Jul-29 00:32N 38°22' W 009°15'1010.4
2014-Jul-28 23:33N 38°24' W 009°02'10 9.7
2014-Jul-28 22:33N 38°31' W 008°53'1 0.5
2014-Jul-28 21:31N 38°31' W 008°53'0 0.0
2014-Jul-28 20:31N 38°31' W 008°53'0 0.0
2014-Jul-28 19:31N 38°31' W 008°53'0 0.0
2014-Jul-28 18:31N 38°31' W 008°53'0 0.0
2014-Jul-28 17:31N 38°31' W 008°53'0 0.0
2014-Jul-28 16:31N 38°31' W 008°53'0 0.0
2014-Jul-28 15:31N 38°31' W 008°53'0 0.0
2014-Jul-28 14:31N 38°31' W 008°53'0 0.0
2014-Jul-28 13:31N 38°31' W 008°53'0 0.0
2014-Jul-28 12:31N 38°31' W 008°53'0 0.0
2014-Jul-28 11:31N 38°31' W 008°53'0 0.0
2014-Jul-28 10:31N 38°31' W 008°53'0 0.0
2014-Jul-28 09:31N 38°31' W 008°53'0 0.0
2014-Jul-28 08:28N 38°31' W 008°53'0 0.0
2014-Jul-28 07:31N 38°31' W 008°53'0 0.0
2014-Jul-28 06:31N 38°31' W 008°53'0 0.0
2014-Jul-28 05:31N 38°31' W 008°53'0 0.0
2014-Jul-28 04:31N 38°31' W 008°53'0 0.0
2014-Jul-28 03:31N 38°31' W 008°53'0 0.0
2014-Jul-28 02:31N 38°31' W 008°53'0 0.0
2014-Jul-28 01:31N 38°31' W 008°53'0 0.0
2014-Jul-28 00:31N 38°31' W 008°53'0 0.0
2014-Jul-27 23:31N 38°31' W 008°53'0 0.0
2014-Jul-27 22:28N 38°31' W 008°53'0 0.0
2014-Jul-27 21:31N 38°31' W 008°53'0 0.0
2014-Jul-27 20:28N 38°31' W 008°53'0 0.0
2014-Jul-27 19:31N 38°31' W 008°53'0 0.0
2014-Jul-27 18:31N 38°31' W 008°53'0 0.0
2014-Jul-27 17:31N 38°31' W 008°53'0 0.0
2014-Jul-27 16:31N 38°31' W 008°53'0 0.0
2014-Jul-27 15:31N 38°31' W 008°53'0 0.0
2014-Jul-27 14:31N 38°31' W 008°53'0 0.0
2014-Jul-27 13:31N 38°31' W 008°53'0 0.0
2014-Jul-27 12:31N 38°31' W 008°53'0 0.0
2014-Jul-27 11:33N 38°31' W 008°53'0 0.0
2014-Jul-27 10:33N 38°31' W 008°53'3 2.9
2014-Jul-27 09:32N 38°29' W 008°56'9 8.8
2014-Jul-27 08:33N 38°24' W 009°04'10 9.5
2014-Jul-27 07:33N 38°22' W 009°16'1210.4
2014-Jul-27 06:25N 38°26' W 009°30'910.3
2014-Jul-27 05:30N 38°29' W 009°42'9 9.9
2014-Jul-27 04:33N 38°32' W 009°53'9 9.3
2014-Jul-27 03:33N 38°37' W 010°04'1010.1
2014-Jul-27 02:33N 38°47' W 010°05'1110.5
2014-Jul-27 01:33N 38°57' W 010°05'1010.3
2014-Jul-27 00:32N 39°08' W 010°05'1010.3
2014-Jul-26 23:33N 39°18' W 010°06'1110.6
2014-Jul-26 22:33N 39°28' W 010°06'1310.5
2014-Jul-26 21:19N 39°41' W 010°05'810.4
2014-Jul-26 20:33N 39°49' W 010°05'1010.2
2014-Jul-26 19:32N 39°60' W 010°04'  
2014-Jul-24 04:07N 43°32' W 003°39'4 7.5
2014-Jul-24 03:33N 43°35' W 003°34'8 7.9
2014-Jul-24 02:33N 43°34' W 003°23'8 7.7
2014-Jul-24 01:33N 43°34' W 003°13'8 7.8
2014-Jul-24 00:33N 43°34' W 003°02'8 7.8
2014-Jul-23 23:33N 43°33' W 002°51'8 7.8
2014-Jul-23 22:33N 43°33' W 002°40'8 8.0
2014-Jul-23 21:32N 43°30' W 002°30'10 8.4
2014-Jul-23 20:23N 43°26' W 002°17'138 3.4
2014-Jul-22 03:32N 43°43' W 005°26'10 9.7
2014-Jul-22 02:31N 43°43' W 005°40'10 9.2
2014-Jul-22 01:26N 43°44' W 005°54'9 9.6
2014-Jul-22 00:27N 43°45' W 006°07'337 6.6
2014-Jul-19 21:33N 38°40' W 009°19'8 8.4
2014-Jul-19 20:33N 38°41' W 009°08'3 3.0
2014-Jul-19 19:32N 38°40' W 009°04'0 0.0
2014-Jul-19 18:32N 38°40' W 009°04'0 0.0
2014-Jul-19 17:32N 38°40' W 009°04'0 0.0
2014-Jul-19 16:32N 38°40' W 009°04'0 0.0
2014-Jul-19 15:32N 38°40' W 009°04'0 0.0
2014-Jul-19 14:32N 38°40' W 009°04'0 0.0
2014-Jul-19 13:32N 38°40' W 009°04'0 0.0
2014-Jul-19 12:32N 38°40' W 009°04'0 0.0
2014-Jul-19 11:32N 38°40' W 009°04'0 0.0
2014-Jul-19 10:32N 38°40' W 009°04'0 0.0
2014-Jul-19 09:32N 38°40' W 009°04'0 0.0
2014-Jul-19 08:32N 38°40' W 009°04'0 0.0
2014-Jul-19 07:32N 38°40' W 009°04'  

Dump ship's entire track history